Tortosa, Spain
Current Conditions -  °F | °C
As of 10:00 PM on Friday 19 Dec 2014 (Local Time) from LERS Reporting Station
Few Clouds Few Clouds  
Wind Chill: 43°   Ceiling: Unl
Heat Index: 43°   Visibility: 6mi
Dew Point: 43°   Wind: 1mph
Humidity: 100%   Direction: NA
Pressure: 30.39"   Gusts: NA
Location:  40.81°N, 0.52°E
Report Text: LERS 192100Z VRB01KT 9999 FEW020 06/06 Q1029
Loading
Personal Weather Stations






























Interactive Weather Map New forecast layout! Learn more

10-Day Weather Forecast

Advertisements
Track Severe Weather on mobile